sensor_id;sensor_type;location;lat;lon;timestamp;temperature;humidity
46117;DHT22;32591;48.102;11.772;2022-10-23T00:01:30;11.10;99.90
46117;DHT22;32591;48.102;11.772;2022-10-23T00:04:00;11.10;99.90
46117;DHT22;32591;48.102;11.772;2022-10-23T00:06:30;11.10;99.90
46117;DHT22;32591;48.102;11.772;2022-10-23T00:08:58;11.10;99.90
46117;DHT22;32591;48.102;11.772;2022-10-23T00:11:28;11.10;99.90
46117;DHT22;32591;48.102;11.772;2022-10-23T00:14:00;11.00;99.90
46117;DHT22;32591;48.102;11.772;2022-10-23T00:16:29;11.00;99.90
46117;DHT22;32591;48.102;11.772;2022-10-23T00:18:57;11.00;99.90
46117;DHT22;32591;48.102;11.772;2022-10-23T00:21:25;11.00;99.90
46117;DHT22;32591;48.102;11.772;2022-10-23T00:23:52;10.90;99.90
46117;DHT22;32591;48.102;11.772;2022-10-23T00:26:19;11.00;99.90
46117;DHT22;32591;48.102;11.772;2022-10-23T00:28:49;10.90;99.90
46117;DHT22;32591;48.102;11.772;2022-10-23T00:31:19;10.90;99.90
46117;DHT22;32591;48.102;11.772;2022-10-23T00:33:47;10.90;99.90
46117;DHT22;32591;48.102;11.772;2022-10-23T00:36:16;10.90;99.90
46117;DHT22;32591;48.102;11.772;2022-10-23T00:38:44;10.90;99.90
46117;DHT22;32591;48.102;11.772;2022-10-23T00:41:15;10.90;99.90
46117;DHT22;32591;48.102;11.772;2022-10-23T00:44:05;10.90;99.90
46117;DHT22;32591;48.102;11.772;2022-10-23T00:46:36;10.90;99.90
46117;DHT22;32591;48.102;11.772;2022-10-23T00:49:05;10.80;99.90
46117;DHT22;32591;48.102;11.772;2022-10-23T00:51:36;10.80;99.90
46117;DHT22;32591;48.102;11.772;2022-10-23T00:54:05;10.70;99.90
46117;DHT22;32591;48.102;11.772;2022-10-23T00:56:35;10.70;99.90
46117;DHT22;32591;48.102;11.772;2022-10-23T00:59:03;10.70;99.90
46117;DHT22;32591;48.102;11.772;2022-10-23T01:01:30;10.70;99.90
46117;DHT22;32591;48.102;11.772;2022-10-23T01:03:59;10.70;99.90
46117;DHT22;32591;48.102;11.772;2022-10-23T01:06:33;10.60;99.90
46117;DHT22;32591;48.102;11.772;2022-10-23T01:09:07;10.60;99.90
46117;DHT22;32591;48.102;11.772;2022-10-23T01:11:39;10.60;99.90
46117;DHT22;32591;48.102;11.772;2022-10-23T01:14:15;10.50;99.90
46117;DHT22;32591;48.102;11.772;2022-10-23T01:16:54;10.40;99.90
46117;DHT22;32591;48.102;11.772;2022-10-23T01:19:45;10.40;99.90
46117;DHT22;32591;48.102;11.772;2022-10-23T01:22:32;10.30;99.90
46117;DHT22;32591;48.102;11.772;2022-10-23T01:25:15;10.20;99.90
46117;DHT22;32591;48.102;11.772;2022-10-23T01:27:51;10.20;99.90
46117;DHT22;32591;48.102;11.772;2022-10-23T01:30:22;10.20;99.90
46117;DHT22;32591;48.102;11.772;2022-10-23T01:32:52;10.10;99.90
46117;DHT22;32591;48.102;11.772;2022-10-23T01:35:24;10.20;99.90
46117;DHT22;32591;48.102;11.772;2022-10-23T01:38:02;10.10;99.90
46117;DHT22;32591;48.102;11.772;2022-10-23T01:40:34;10.00;99.90
46117;DHT22;32591;48.102;11.772;2022-10-23T01:43:09;10.00;99.90
46117;DHT22;32591;48.102;11.772;2022-10-23T01:45:40;10.00;99.90
46117;DHT22;32591;48.102;11.772;2022-10-23T01:48:13;10.00;99.90
46117;DHT22;32591;48.102;11.772;2022-10-23T01:50:43;10.00;99.90
46117;DHT22;32591;48.102;11.772;2022-10-23T01:53:10;10.00;99.90
46117;DHT22;32591;48.102;11.772;2022-10-23T01:55:38;10.00;99.90
46117;DHT22;32591;48.102;11.772;2022-10-23T01:58:07;9.90;99.90
46117;DHT22;32591;48.102;11.772;2022-10-23T02:00:38;9.90;99.90
46117;DHT22;32591;48.102;11.772;2022-10-23T02:03:07;9.90;99.90
46117;DHT22;32591;48.102;11.772;2022-10-23T02:05:35;9.90;99.90
46117;DHT22;32591;48.102;11.772;2022-10-23T02:08:04;9.80;99.90
46117;DHT22;32591;48.102;11.772;2022-10-23T02:10:38;9.80;99.90
46117;DHT22;32591;48.102;11.772;2022-10-23T02:13:12;9.80;99.90
46117;DHT22;32591;48.102;11.772;2022-10-23T02:15:46;9.80;99.90
46117;DHT22;32591;48.102;11.772;2022-10-23T02:18:26;9.90;99.90
46117;DHT22;32591;48.102;11.772;2022-10-23T02:21:04;9.90;99.90
46117;DHT22;32591;48.102;11.772;2022-10-23T02:23:36;9.90;99.90
46117;DHT22;32591;48.102;11.772;2022-10-23T02:26:08;10.00;99.90
46117;DHT22;32591;48.102;11.772;2022-10-23T02:28:42;9.90;99.90
46117;DHT22;32591;48.102;11.772;2022-10-23T02:31:15;9.90;99.90
46117;DHT22;32591;48.102;11.772;2022-10-23T02:33:44;9.80;99.90
46117;DHT22;32591;48.102;11.772;2022-10-23T02:36:13;9.90;99.90
46117;DHT22;32591;48.102;11.772;2022-10-23T02:38:42;9.90;99.90
46117;DHT22;32591;48.102;11.772;2022-10-23T02:41:16;9.90;99.90
46117;DHT22;32591;48.102;11.772;2022-10-23T02:43:56;9.90;99.90
46117;DHT22;32591;48.102;11.772;2022-10-23T02:46:35;9.90;99.90
46117;DHT22;32591;48.102;11.772;2022-10-23T02:49:12;9.90;99.90
46117;DHT22;32591;48.102;11.772;2022-10-23T02:51:50;9.90;99.90
46117;DHT22;32591;48.102;11.772;2022-10-23T02:54:30;9.90;99.90
46117;DHT22;32591;48.102;11.772;2022-10-23T02:57:09;9.80;99.90
46117;DHT22;32591;48.102;11.772;2022-10-23T02:59:43;9.80;99.90
46117;DHT22;32591;48.102;11.772;2022-10-23T03:02:18;9.80;99.90
46117;DHT22;32591;48.102;11.772;2022-10-23T03:04:48;9.80;99.90
46117;DHT22;32591;48.102;11.772;2022-10-23T03:07:17;9.90;99.90
46117;DHT22;32591;48.102;11.772;2022-10-23T03:09:45;9.80;99.90
46117;DHT22;32591;48.102;11.772;2022-10-23T03:12:12;9.90;99.90
46117;DHT22;32591;48.102;11.772;2022-10-23T03:14:40;9.90;99.90
46117;DHT22;32591;48.102;11.772;2022-10-23T03:17:08;9.90;99.90
46117;DHT22;32591;48.102;11.772;2022-10-23T03:19:35;9.90;99.90
46117;DHT22;32591;48.102;11.772;2022-10-23T03:22:02;9.90;99.90
46117;DHT22;32591;48.102;11.772;2022-10-23T03:24:29;9.80;99.90
46117;DHT22;32591;48.102;11.772;2022-10-23T03:26:56;9.90;99.90
46117;DHT22;32591;48.102;11.772;2022-10-23T03:29:24;9.80;99.90
46117;DHT22;32591;48.102;11.772;2022-10-23T03:31:52;9.80;99.90
46117;DHT22;32591;48.102;11.772;2022-10-23T03:34:20;9.70;99.90
46117;DHT22;32591;48.102;11.772;2022-10-23T03:36:47;9.80;99.90
46117;DHT22;32591;48.102;11.772;2022-10-23T03:39:15;9.80;99.90
46117;DHT22;32591;48.102;11.772;2022-10-23T03:41:42;9.70;99.90
46117;DHT22;32591;48.102;11.772;2022-10-23T03:44:10;9.70;99.90
46117;DHT22;32591;48.102;11.772;2022-10-23T03:46:37;9.70;99.90
46117;DHT22;32591;48.102;11.772;2022-10-23T03:49:06;9.70;99.90
46117;DHT22;32591;48.102;11.772;2022-10-23T03:51:33;9.70;99.90
46117;DHT22;32591;48.102;11.772;2022-10-23T03:54:00;9.70;99.90
46117;DHT22;32591;48.102;11.772;2022-10-23T03:56:27;9.70;99.90
46117;DHT22;32591;48.102;11.772;2022-10-23T03:58:54;9.70;99.90
46117;DHT22;32591;48.102;11.772;2022-10-23T04:01:21;9.70;99.90
46117;DHT22;32591;48.102;11.772;2022-10-23T04:03:48;9.70;99.90
46117;DHT22;32591;48.102;11.772;2022-10-23T04:06:17;9.70;99.90
46117;DHT22;32591;48.102;11.772;2022-10-23T04:08:44;9.60;99.90
46117;DHT22;32591;48.102;11.772;2022-10-23T04:11:11;9.60;99.90
46117;DHT22;32591;48.102;11.772;2022-10-23T04:13:38;9.60;99.90
46117;DHT22;32591;48.102;11.772;2022-10-23T04:16:05;9.60;99.90
46117;DHT22;32591;48.102;11.772;2022-10-23T04:18:32;9.60;99.90
46117;DHT22;32591;48.102;11.772;2022-10-23T04:20:59;9.60;99.90
46117;DHT22;32591;48.102;11.772;2022-10-23T04:23:27;9.60;99.90
46117;DHT22;32591;48.102;11.772;2022-10-23T04:25:55;9.60;99.90
46117;DHT22;32591;48.102;11.772;2022-10-23T04:28:23;9.60;99.90
46117;DHT22;32591;48.102;11.772;2022-10-23T04:30:50;9.60;99.90
46117;DHT22;32591;48.102;11.772;2022-10-23T04:33:17;9.60;99.90
46117;DHT22;32591;48.102;11.772;2022-10-23T04:35:44;9.60;99.90
46117;DHT22;32591;48.102;11.772;2022-10-23T04:38:11;9.60;99.90
46117;DHT22;32591;48.102;11.772;2022-10-23T04:40:39;9.60;99.90
46117;DHT22;32591;48.102;11.772;2022-10-23T04:43:06;9.60;99.90
46117;DHT22;32591;48.102;11.772;2022-10-23T04:45:33;9.60;99.90
46117;DHT22;32591;48.102;11.772;2022-10-23T04:48:00;9.70;99.90
46117;DHT22;32591;48.102;11.772;2022-10-23T04:50:29;9.60;99.90
46117;DHT22;32591;48.102;11.772;2022-10-23T04:52:57;9.60;99.90
46117;DHT22;32591;48.102;11.772;2022-10-23T04:55:24;9.60;99.90
46117;DHT22;32591;48.102;11.772;2022-10-23T04:57:53;9.60;99.90
46117;DHT22;32591;48.102;11.772;2022-10-23T05:00:20;9.60;99.90
46117;DHT22;32591;48.102;11.772;2022-10-23T05:02:47;9.60;99.90
46117;DHT22;32591;48.102;11.772;2022-10-23T05:05:14;9.60;99.90
46117;DHT22;32591;48.102;11.772;2022-10-23T05:07:41;9.60;99.90
46117;DHT22;32591;48.102;11.772;2022-10-23T05:10:08;9.60;99.90
46117;DHT22;32591;48.102;11.772;2022-10-23T05:12:35;9.50;99.90
46117;DHT22;32591;48.102;11.772;2022-10-23T05:15:05;9.50;99.90
46117;DHT22;32591;48.102;11.772;2022-10-23T05:17:34;9.50;99.90
46117;DHT22;32591;48.102;11.772;2022-10-23T05:20:06;9.50;99.90
46117;DHT22;32591;48.102;11.772;2022-10-23T05:22:39;9.50;99.90
46117;DHT22;32591;48.102;11.772;2022-10-23T05:25:07;9.50;99.90
46117;DHT22;32591;48.102;11.772;2022-10-23T05:27:35;9.50;99.90
46117;DHT22;32591;48.102;11.772;2022-10-23T05:30:05;9.50;99.90
46117;DHT22;32591;48.102;11.772;2022-10-23T05:32:33;9.50;99.90
46117;DHT22;32591;48.102;11.772;2022-10-23T05:35:04;9.50;99.90
46117;DHT22;32591;48.102;11.772;2022-10-23T05:37:35;9.50;99.90
46117;DHT22;32591;48.102;11.772;2022-10-23T05:40:03;9.50;99.90
46117;DHT22;32591;48.102;11.772;2022-10-23T05:42:31;9.50;99.90
46117;DHT22;32591;48.102;11.772;2022-10-23T05:44:58;9.50;99.90
46117;DHT22;32591;48.102;11.772;2022-10-23T05:47:27;9.50;99.90
46117;DHT22;32591;48.102;11.772;2022-10-23T05:49:54;9.50;99.90
46117;DHT22;32591;48.102;11.772;2022-10-23T05:52:21;9.50;99.90
46117;DHT22;32591;48.102;11.772;2022-10-23T05:54:49;9.60;99.90
46117;DHT22;32591;48.102;11.772;2022-10-23T05:57:16;9.60;99.90
46117;DHT22;32591;48.102;11.772;2022-10-23T05:59:44;9.60;99.90
46117;DHT22;32591;48.102;11.772;2022-10-23T06:02:11;9.60;99.90
46117;DHT22;32591;48.102;11.772;2022-10-23T06:04:39;9.60;99.90
46117;DHT22;32591;48.102;11.772;2022-10-23T06:07:06;9.60;99.90
46117;DHT22;32591;48.102;11.772;2022-10-23T06:09:33;9.60;99.90
46117;DHT22;32591;48.102;11.772;2022-10-23T06:12:00;9.60;99.90
46117;DHT22;32591;48.102;11.772;2022-10-23T06:14:27;9.60;99.90
46117;DHT22;32591;48.102;11.772;2022-10-23T06:16:54;9.70;99.90
46117;DHT22;32591;48.102;11.772;2022-10-23T06:19:21;9.70;99.90
46117;DHT22;32591;48.102;11.772;2022-10-23T06:21:50;9.70;99.90
46117;DHT22;32591;48.102;11.772;2022-10-23T06:24:17;9.80;99.90
46117;DHT22;32591;48.102;11.772;2022-10-23T06:26:44;9.70;99.90
46117;DHT22;32591;48.102;11.772;2022-10-23T06:29:11;9.70;99.90
46117;DHT22;32591;48.102;11.772;2022-10-23T06:31:38;9.70;99.90
46117;DHT22;32591;48.102;11.772;2022-10-23T06:34:05;9.70;99.90
46117;DHT22;32591;48.102;11.772;2022-10-23T06:36:32;9.70;99.90
46117;DHT22;32591;48.102;11.772;2022-10-23T06:39:00;9.80;99.90
46117;DHT22;32591;48.102;11.772;2022-10-23T06:41:27;9.80;99.90
46117;DHT22;32591;48.102;11.772;2022-10-23T06:43:55;9.80;99.90
46117;DHT22;32591;48.102;11.772;2022-10-23T06:46:22;9.90;99.90
46117;DHT22;32591;48.102;11.772;2022-10-23T06:48:51;9.90;99.90
46117;DHT22;32591;48.102;11.772;2022-10-23T06:51:18;10.00;99.90
46117;DHT22;32591;48.102;11.772;2022-10-23T06:53:47;10.10;99.90
46117;DHT22;32591;48.102;11.772;2022-10-23T06:56:15;10.20;99.90
46117;DHT22;32591;48.102;11.772;2022-10-23T06:58:42;10.30;99.90
46117;DHT22;32591;48.102;11.772;2022-10-23T07:01:11;10.30;99.90
46117;DHT22;32591;48.102;11.772;2022-10-23T07:03:39;10.40;99.90
46117;DHT22;32591;48.102;11.772;2022-10-23T07:06:07;10.50;99.90
46117;DHT22;32591;48.102;11.772;2022-10-23T07:08:35;10.50;99.90
46117;DHT22;32591;48.102;11.772;2022-10-23T07:11:04;10.60;99.90
46117;DHT22;32591;48.102;11.772;2022-10-23T07:13:34;10.60;99.90
46117;DHT22;32591;48.102;11.772;2022-10-23T07:16:13;10.70;99.90
46117;DHT22;32591;48.102;11.772;2022-10-23T07:18:42;10.80;99.90
46117;DHT22;32591;48.102;11.772;2022-10-23T07:21:09;10.90;99.90
46117;DHT22;32591;48.102;11.772;2022-10-23T07:23:37;11.00;99.90
46117;DHT22;32591;48.102;11.772;2022-10-23T07:26:06;11.10;99.90
46117;DHT22;32591;48.102;11.772;2022-10-23T07:28:35;11.10;99.90
46117;DHT22;32591;48.102;11.772;2022-10-23T07:31:03;11.20;99.90
46117;DHT22;32591;48.102;11.772;2022-10-23T07:33:30;11.20;99.90
46117;DHT22;32591;48.102;11.772;2022-10-23T07:35:58;11.30;99.90
46117;DHT22;32591;48.102;11.772;2022-10-23T07:38:25;11.40;99.90
46117;DHT22;32591;48.102;11.772;2022-10-23T07:40:52;11.50;99.90
46117;DHT22;32591;48.102;11.772;2022-10-23T07:43:19;11.50;99.90
46117;DHT22;32591;48.102;11.772;2022-10-23T07:45:48;11.50;99.90
46117;DHT22;32591;48.102;11.772;2022-10-23T07:48:16;11.60;99.90
46117;DHT22;32591;48.102;11.772;2022-10-23T07:50:43;11.60;99.90
46117;DHT22;32591;48.102;11.772;2022-10-23T07:53:16;11.50;99.90
46117;DHT22;32591;48.102;11.772;2022-10-23T07:55:51;11.50;99.90
46117;DHT22;32591;48.102;11.772;2022-10-23T07:58:18;11.60;99.90
46117;DHT22;32591;48.102;11.772;2022-10-23T08:00:47;11.50;99.90
46117;DHT22;32591;48.102;11.772;2022-10-23T08:03:19;11.60;99.90
46117;DHT22;32591;48.102;11.772;2022-10-23T08:05:46;11.50;99.90
46117;DHT22;32591;48.102;11.772;2022-10-23T08:08:13;11.50;99.90
46117;DHT22;32591;48.102;11.772;2022-10-23T08:10:40;11.60;99.90
46117;DHT22;32591;48.102;11.772;2022-10-23T08:13:10;11.60;99.90
46117;DHT22;32591;48.102;11.772;2022-10-23T08:15:39;11.70;99.90
46117;DHT22;32591;48.102;11.772;2022-10-23T08:18:07;11.60;99.90
46117;DHT22;32591;48.102;11.772;2022-10-23T08:20:37;11.60;99.90
46117;DHT22;32591;48.102;11.772;2022-10-23T08:23:05;11.70;99.90
46117;DHT22;32591;48.102;11.772;2022-10-23T08:25:32;11.80;99.90
46117;DHT22;32591;48.102;11.772;2022-10-23T08:28:00;11.90;99.90
46117;DHT22;32591;48.102;11.772;2022-10-23T08:30:27;12.00;99.90
46117;DHT22;32591;48.102;11.772;2022-10-23T08:32:54;12.20;99.90
46117;DHT22;32591;48.102;11.772;2022-10-23T08:35:23;12.30;99.90
46117;DHT22;32591;48.102;11.772;2022-10-23T08:37:50;12.40;99.90
46117;DHT22;32591;48.102;11.772;2022-10-23T08:40:21;12.50;99.90
46117;DHT22;32591;48.102;11.772;2022-10-23T08:42:56;12.60;99.90
46117;DHT22;32591;48.102;11.772;2022-10-23T08:45:31;12.70;99.90
46117;DHT22;32591;48.102;11.772;2022-10-23T08:48:05;13.00;99.90
46117;DHT22;32591;48.102;11.772;2022-10-23T08:50:40;13.10;99.90
46117;DHT22;32591;48.102;11.772;2022-10-23T08:53:14;13.10;99.90
46117;DHT22;32591;48.102;11.772;2022-10-23T08:55:46;13.20;99.90
46117;DHT22;32591;48.102;11.772;2022-10-23T08:58:21;13.30;99.90
46117;DHT22;32591;48.102;11.772;2022-10-23T09:00:51;13.30;99.90
46117;DHT22;32591;48.102;11.772;2022-10-23T09:03:18;13.40;99.90
46117;DHT22;32591;48.102;11.772;2022-10-23T09:05:56;13.50;99.90
46117;DHT22;32591;48.102;11.772;2022-10-23T09:08:42;13.60;99.90
46117;DHT22;32591;48.102;11.772;2022-10-23T09:11:20;13.80;99.90
46117;DHT22;32591;48.102;11.772;2022-10-23T09:13:58;13.90;99.90
46117;DHT22;32591;48.102;11.772;2022-10-23T09:16:45;14.10;99.90
46117;DHT22;32591;48.102;11.772;2022-10-23T09:19:17;14.20;99.90
46117;DHT22;32591;48.102;11.772;2022-10-23T09:21:48;14.30;99.90
46117;DHT22;32591;48.102;11.772;2022-10-23T09:24:27;14.30;99.90
46117;DHT22;32591;48.102;11.772;2022-10-23T09:26:58;14.30;99.90
46117;DHT22;32591;48.102;11.772;2022-10-23T09:29:27;14.30;99.90
46117;DHT22;32591;48.102;11.772;2022-10-23T09:31:57;14.40;99.90
46117;DHT22;32591;48.102;11.772;2022-10-23T09:34:26;14.40;99.90
46117;DHT22;32591;48.102;11.772;2022-10-23T09:36:57;14.40;99.90
46117;DHT22;32591;48.102;11.772;2022-10-23T09:39:28;14.40;99.90
46117;DHT22;32591;48.102;11.772;2022-10-23T09:41:57;14.50;99.90
46117;DHT22;32591;48.102;11.772;2022-10-23T09:44:29;14.50;99.90
46117;DHT22;32591;48.102;11.772;2022-10-23T09:46:59;14.50;99.90
46117;DHT22;32591;48.102;11.772;2022-10-23T09:49:38;14.60;99.90
46117;DHT22;32591;48.102;11.772;2022-10-23T09:52:22;14.70;99.90
46117;DHT22;32591;48.102;11.772;2022-10-23T09:54:53;15.00;99.90
46117;DHT22;32591;48.102;11.772;2022-10-23T09:57:25;15.10;99.90
46117;DHT22;32591;48.102;11.772;2022-10-23T09:59:57;15.20;99.90
46117;DHT22;32591;48.102;11.772;2022-10-23T10:02:28;15.40;99.90
46117;DHT22;32591;48.102;11.772;2022-10-23T10:04:57;15.60;99.90
46117;DHT22;32591;48.102;11.772;2022-10-23T10:07:27;15.80;99.90
46117;DHT22;32591;48.102;11.772;2022-10-23T10:09:56;16.00;99.90
46117;DHT22;32591;48.102;11.772;2022-10-23T10:12:34;16.20;99.90
46117;DHT22;32591;48.102;11.772;2022-10-23T10:15:17;16.40;99.90
46117;DHT22;32591;48.102;11.772;2022-10-23T10:17:53;16.70;99.90
46117;DHT22;32591;48.102;11.772;2022-10-23T10:23:27;17.10;99.90
46117;DHT22;32591;48.102;11.772;2022-10-23T10:26:06;17.20;99.90
46117;DHT22;32591;48.102;11.772;2022-10-23T10:28:52;17.30;99.90
46117;DHT22;32591;48.102;11.772;2022-10-23T10:31:33;17.50;99.90
46117;DHT22;32591;48.102;11.772;2022-10-23T10:34:10;17.70;99.90
46117;DHT22;32591;48.102;11.772;2022-10-23T10:36:46;17.80;99.90
46117;DHT22;32591;48.102;11.772;2022-10-23T10:39:23;18.00;99.90
46117;DHT22;32591;48.102;11.772;2022-10-23T10:42:15;18.10;99.90
46117;DHT22;32591;48.102;11.772;2022-10-23T10:48:02;18.40;99.90
46117;DHT22;32591;48.102;11.772;2022-10-23T10:50:43;18.60;99.90
46117;DHT22;32591;48.102;11.772;2022-10-23T10:53:19;18.60;99.90
46117;DHT22;32591;48.102;11.772;2022-10-23T10:55:52;18.70;99.90
46117;DHT22;32591;48.102;11.772;2022-10-23T10:58:24;18.80;99.90
46117;DHT22;32591;48.102;11.772;2022-10-23T11:00:58;18.90;99.90
46117;DHT22;32591;48.102;11.772;2022-10-23T11:03:32;18.90;99.90
46117;DHT22;32591;48.102;11.772;2022-10-23T11:06:03;19.00;99.90
46117;DHT22;32591;48.102;11.772;2022-10-23T11:08:34;19.10;99.90
46117;DHT22;32591;48.102;11.772;2022-10-23T11:11:06;19.20;99.90
46117;DHT22;32591;48.102;11.772;2022-10-23T11:13:38;19.20;99.90
46117;DHT22;32591;48.102;11.772;2022-10-23T11:16:11;19.10;99.90
46117;DHT22;32591;48.102;11.772;2022-10-23T11:18:42;19.10;99.90
46117;DHT22;32591;48.102;11.772;2022-10-23T11:21:21;19.10;99.90
46117;DHT22;32591;48.102;11.772;2022-10-23T11:27:22;19.10;99.90
46117;DHT22;32591;48.102;11.772;2022-10-23T11:30:11;19.00;99.90
46117;DHT22;32591;48.102;11.772;2022-10-23T11:32:56;18.90;99.90
46117;DHT22;32591;48.102;11.772;2022-10-23T11:36:05;18.80;99.90
46117;DHT22;32591;48.102;11.772;2022-10-23T11:38:40;18.80;99.90
46117;DHT22;32591;48.102;11.772;2022-10-23T11:41:17;18.80;99.90
46117;DHT22;32591;48.102;11.772;2022-10-23T11:43:50;18.80;99.90
46117;DHT22;32591;48.102;11.772;2022-10-23T11:46:32;18.80;99.90
46117;DHT22;32591;48.102;11.772;2022-10-23T11:49:01;18.70;99.90
46117;DHT22;32591;48.102;11.772;2022-10-23T11:51:32;18.80;99.90
46117;DHT22;32591;48.102;11.772;2022-10-23T11:54:19;18.90;99.90
46117;DHT22;32591;48.102;11.772;2022-10-23T11:56:55;18.90;99.90
46117;DHT22;32591;48.102;11.772;2022-10-23T11:59:49;19.10;99.90
46117;DHT22;32591;48.102;11.772;2022-10-23T12:02:26;19.20;99.90
46117;DHT22;32591;48.102;11.772;2022-10-23T12:04:59;19.10;99.90
46117;DHT22;32591;48.102;11.772;2022-10-23T12:07:30;19.00;99.90
46117;DHT22;32591;48.102;11.772;2022-10-23T12:10:02;19.00;99.90
46117;DHT22;32591;48.102;11.772;2022-10-23T12:12:32;19.10;99.90
46117;DHT22;32591;48.102;11.772;2022-10-23T12:15:17;19.10;99.90
46117;DHT22;32591;48.102;11.772;2022-10-23T12:17:47;19.10;99.90
46117;DHT22;32591;48.102;11.772;2022-10-23T12:20:24;19.10;99.90
46117;DHT22;32591;48.102;11.772;2022-10-23T12:23:04;19.20;99.90
46117;DHT22;32591;48.102;11.772;2022-10-23T12:25:44;19.30;99.90
46117;DHT22;32591;48.102;11.772;2022-10-23T12:28:28;19.40;99.90
46117;DHT22;32591;48.102;11.772;2022-10-23T12:31:12;19.60;99.90
46117;DHT22;32591;48.102;11.772;2022-10-23T12:33:52;19.60;99.90
46117;DHT22;32591;48.102;11.772;2022-10-23T12:36:42;19.70;99.90
46117;DHT22;32591;48.102;11.772;2022-10-23T12:39:27;19.70;99.90
46117;DHT22;32591;48.102;11.772;2022-10-23T12:41:56;19.70;99.90
46117;DHT22;32591;48.102;11.772;2022-10-23T12:44:23;19.70;99.90
46117;DHT22;32591;48.102;11.772;2022-10-23T12:46:54;19.70;99.90
46117;DHT22;32591;48.102;11.772;2022-10-23T12:49:24;19.60;99.90
46117;DHT22;32591;48.102;11.772;2022-10-23T12:51:56;19.60;99.90
46117;DHT22;32591;48.102;11.772;2022-10-23T12:54:24;19.60;99.90
46117;DHT22;32591;48.102;11.772;2022-10-23T12:56:52;19.60;99.90
46117;DHT22;32591;48.102;11.772;2022-10-23T12:59:22;19.50;99.90
46117;DHT22;32591;48.102;11.772;2022-10-23T13:01:53;19.50;99.90
46117;DHT22;32591;48.102;11.772;2022-10-23T13:04:26;19.50;99.90
46117;DHT22;32591;48.102;11.772;2022-10-23T13:06:56;19.50;99.90
46117;DHT22;32591;48.102;11.772;2022-10-23T13:09:28;19.50;99.90
46117;DHT22;32591;48.102;11.772;2022-10-23T13:11:59;19.60;99.90
46117;DHT22;32591;48.102;11.772;2022-10-23T13:14:32;19.90;99.90
46117;DHT22;32591;48.102;11.772;2022-10-23T13:17:03;20.10;99.90
46117;DHT22;32591;48.102;11.772;2022-10-23T13:19:31;20.30;99.90
46117;DHT22;32591;48.102;11.772;2022-10-23T13:21:59;20.30;99.90
46117;DHT22;32591;48.102;11.772;2022-10-23T13:24:28;20.30;99.90
46117;DHT22;32591;48.102;11.772;2022-10-23T13:26:56;20.40;99.90
46117;DHT22;32591;48.102;11.772;2022-10-23T13:29:26;20.40;99.90
46117;DHT22;32591;48.102;11.772;2022-10-23T13:31:55;20.40;99.90
46117;DHT22;32591;48.102;11.772;2022-10-23T13:34:25;20.40;99.90
46117;DHT22;32591;48.102;11.772;2022-10-23T13:36:59;20.50;99.90
46117;DHT22;32591;48.102;11.772;2022-10-23T13:39:29;20.60;99.90
46117;DHT22;32591;48.102;11.772;2022-10-23T13:42:00;20.60;99.90
46117;DHT22;32591;48.102;11.772;2022-10-23T13:44:37;20.60;99.90
46117;DHT22;32591;48.102;11.772;2022-10-23T13:47:04;20.60;99.90
46117;DHT22;32591;48.102;11.772;2022-10-23T13:49:33;20.50;99.90
46117;DHT22;32591;48.102;11.772;2022-10-23T13:52:00;20.40;99.90
46117;DHT22;32591;48.102;11.772;2022-10-23T13:54:27;20.30;99.90
46117;DHT22;32591;48.102;11.772;2022-10-23T13:56:56;20.20;99.90
46117;DHT22;32591;48.102;11.772;2022-10-23T13:59:23;20.20;99.90
46117;DHT22;32591;48.102;11.772;2022-10-23T14:01:50;20.20;99.90
46117;DHT22;32591;48.102;11.772;2022-10-23T14:04:18;20.20;99.90
46117;DHT22;32591;48.102;11.772;2022-10-23T14:06:47;20.20;99.90
46117;DHT22;32591;48.102;11.772;2022-10-23T14:09:15;20.00;99.90
46117;DHT22;32591;48.102;11.772;2022-10-23T14:11:43;19.90;99.90
46117;DHT22;32591;48.102;11.772;2022-10-23T14:14:10;20.00;99.90
46117;DHT22;32591;48.102;11.772;2022-10-23T14:16:37;20.00;99.90
46117;DHT22;32591;48.102;11.772;2022-10-23T14:19:04;20.10;99.90
46117;DHT22;32591;48.102;11.772;2022-10-23T14:21:32;20.10;99.90
46117;DHT22;32591;48.102;11.772;2022-10-23T14:24:00;20.20;99.90
46117;DHT22;32591;48.102;11.772;2022-10-23T14:26:27;20.20;99.90
46117;DHT22;32591;48.102;11.772;2022-10-23T14:28:55;20.20;99.90
46117;DHT22;32591;48.102;11.772;2022-10-23T14:31:23;20.10;99.90
46117;DHT22;32591;48.102;11.772;2022-10-23T14:33:53;20.00;99.90
46117;DHT22;32591;48.102;11.772;2022-10-23T14:36:22;19.90;99.90
46117;DHT22;32591;48.102;11.772;2022-10-23T14:38:53;19.80;99.90
46117;DHT22;32591;48.102;11.772;2022-10-23T14:41:23;19.70;99.90
46117;DHT22;32591;48.102;11.772;2022-10-23T14:43:50;19.60;99.90
46117;DHT22;32591;48.102;11.772;2022-10-23T14:46:21;19.60;99.90
46117;DHT22;32591;48.102;11.772;2022-10-23T14:48:49;19.70;99.90
46117;DHT22;32591;48.102;11.772;2022-10-23T14:51:19;19.70;99.90
46117;DHT22;32591;48.102;11.772;2022-10-23T14:53:48;19.60;99.90
46117;DHT22;32591;48.102;11.772;2022-10-23T14:56:15;19.50;99.90
46117;DHT22;32591;48.102;11.772;2022-10-23T14:58:43;19.50;99.90
46117;DHT22;32591;48.102;11.772;2022-10-23T15:01:10;19.60;99.90
46117;DHT22;32591;48.102;11.772;2022-10-23T15:03:37;19.40;99.90
46117;DHT22;32591;48.102;11.772;2022-10-23T15:06:05;19.40;99.90
46117;DHT22;32591;48.102;11.772;2022-10-23T15:08:33;19.40;99.90
46117;DHT22;32591;48.102;11.772;2022-10-23T15:11:01;19.40;99.90
46117;DHT22;32591;48.102;11.772;2022-10-23T15:13:29;19.40;99.90
46117;DHT22;32591;48.102;11.772;2022-10-23T15:16:06;19.30;99.90
46117;DHT22;32591;48.102;11.772;2022-10-23T15:18:35;19.20;99.90
46117;DHT22;32591;48.102;11.772;2022-10-23T15:21:03;19.20;99.90
46117;DHT22;32591;48.102;11.772;2022-10-23T15:23:31;19.20;99.90
46117;DHT22;32591;48.102;11.772;2022-10-23T15:26:00;19.10;99.90
46117;DHT22;32591;48.102;11.772;2022-10-23T15:28:29;19.10;99.90
46117;DHT22;32591;48.102;11.772;2022-10-23T15:30:57;19.10;99.90
46117;DHT22;32591;48.102;11.772;2022-10-23T15:33:26;19.00;99.90
46117;DHT22;32591;48.102;11.772;2022-10-23T15:35:53;19.00;99.90
46117;DHT22;32591;48.102;11.772;2022-10-23T15:38:20;18.90;99.90
46117;DHT22;32591;48.102;11.772;2022-10-23T15:40:48;18.90;99.90
46117;DHT22;32591;48.102;11.772;2022-10-23T15:43:16;18.80;99.90
46117;DHT22;32591;48.102;11.772;2022-10-23T15:45:43;18.70;99.90
46117;DHT22;32591;48.102;11.772;2022-10-23T15:48:10;18.70;99.90
46117;DHT22;32591;48.102;11.772;2022-10-23T15:50:39;18.60;99.90
46117;DHT22;32591;48.102;11.772;2022-10-23T15:53:06;18.50;99.90